createdAt,value
2022-08-22T00:02:19.000Z,20.60
2022-08-22T00:02:43.757Z,21.90
2022-08-22T00:02:52.601Z,23.10
2022-08-22T00:03:02.037Z,21.80
2022-08-22T00:05:07.197Z,20.70
2022-08-22T00:07:46.980Z,20.70
2022-08-22T00:10:25.496Z,20.70
2022-08-22T00:12:53.174Z,20.70
2022-08-22T00:15:43.485Z,20.80
2022-08-22T00:18:19.153Z,20.70
2022-08-22T00:20:54.373Z,20.70
2022-08-22T00:23:34.171Z,20.70
2022-08-22T00:26:07.098Z,20.70
2022-08-22T00:28:40.351Z,20.70
2022-08-22T00:31:38.234Z,20.70
2022-08-22T00:34:12.813Z,20.60
2022-08-22T00:36:52.594Z,20.50
2022-08-22T00:39:51.080Z,20.50
2022-08-22T00:42:56.234Z,20.50
2022-08-22T00:46:03.932Z,20.50
2022-08-22T00:48:52.576Z,20.50
2022-08-22T00:51:29.442Z,20.50
2022-08-22T00:54:17.576Z,20.50
2022-08-22T00:57:27.079Z,20.50
2022-08-22T01:00:00.269Z,20.50
2022-08-22T01:02:36.510Z,20.60
2022-08-22T01:05:17.321Z,20.50
2022-08-22T01:07:58.844Z,20.60
2022-08-22T01:10:49.213Z,20.50
2022-08-22T01:13:41.163Z,20.50
2022-08-22T01:16:56.048Z,20.50
2022-08-22T01:19:54.668Z,20.50
2022-08-22T01:22:41.083Z,20.60
2022-08-22T01:25:35.935Z,20.60
2022-08-22T01:28:34.275Z,20.50
2022-08-22T01:31:20.356Z,20.60
2022-08-22T01:34:13.060Z,20.60
2022-08-22T01:36:48.828Z,20.60
2022-08-22T01:39:25.917Z,20.50
2022-08-22T01:42:08.881Z,20.50
2022-08-22T01:44:42.470Z,20.50
2022-08-22T01:47:15.645Z,20.50
2022-08-22T01:49:52.797Z,20.50
2022-08-22T01:52:40.570Z,20.60
2022-08-22T01:55:24.976Z,20.50
2022-08-22T01:57:56.404Z,20.40
2022-08-22T02:00:34.695Z,20.50
2022-08-22T02:03:23.368Z,20.40
2022-08-22T02:06:00.176Z,20.50
2022-08-22T02:08:47.160Z,20.40
2022-08-22T02:11:34.175Z,20.50
2022-08-22T02:14:07.274Z,20.40
2022-08-22T02:16:48.363Z,20.40
2022-08-22T02:19:15.730Z,20.40
2022-08-22T02:22:04.909Z,20.40
2022-08-22T02:24:43.941Z,20.50
2022-08-22T02:27:31.797Z,20.40
2022-08-22T02:30:05.137Z,20.30
2022-08-22T02:32:41.732Z,20.20
2022-08-22T02:35:37.956Z,20.20
2022-08-22T02:38:22.060Z,20.20
2022-08-22T02:41:12.877Z,20.20
2022-08-22T02:43:56.878Z,20.10
2022-08-22T02:46:42.016Z,20.10
2022-08-22T02:49:44.025Z,20.10
2022-08-22T02:52:35.060Z,20.00
2022-08-22T02:55:09.079Z,20.00
2022-08-22T02:57:45.907Z,19.90
2022-08-22T03:00:31.240Z,19.90
2022-08-22T03:03:06.621Z,19.90
2022-08-22T03:05:36.960Z,19.90
2022-08-22T03:08:22.937Z,19.80
2022-08-22T03:11:29.778Z,19.90
2022-08-22T03:14:09.504Z,19.90
2022-08-22T03:16:55.380Z,19.90
2022-08-22T03:19:25.189Z,19.90
2022-08-22T03:22:02.577Z,19.80
2022-08-22T03:24:41.852Z,19.80
2022-08-22T03:27:32.558Z,19.80
2022-08-22T03:30:11.592Z,19.90
2022-08-22T03:32:55.676Z,19.90
2022-08-22T03:35:46.154Z,19.90
2022-08-22T03:38:34.484Z,19.90
2022-08-22T03:41:01.768Z,19.90
2022-08-22T03:43:40.171Z,19.80
2022-08-22T03:46:13.365Z,19.90
2022-08-22T03:49:06.638Z,19.90
2022-08-22T03:51:44.938Z,19.90
2022-08-22T03:54:39.712Z,19.90
2022-08-22T03:57:42.329Z,19.90
2022-08-22T04:00:33.945Z,19.90
2022-08-22T04:03:22.581Z,19.90
2022-08-22T04:06:12.807Z,19.80
2022-08-22T04:09:34.545Z,19.80
2022-08-22T04:12:34.936Z,19.80
2022-08-22T04:15:18.494Z,19.70
2022-08-22T04:18:00.255Z,19.70
2022-08-22T04:20:46.207Z,19.70
2022-08-22T04:24:02.413Z,19.80
2022-08-22T04:26:35.985Z,19.70
2022-08-22T04:29:06.181Z,19.80
2022-08-22T04:31:42.221Z,19.70
2022-08-22T04:34:22.522Z,19.70
2022-08-22T04:37:04.877Z,19.70
2022-08-22T04:39:41.390Z,19.60
2022-08-22T04:42:52.982Z,19.60
2022-08-22T04:45:26.037Z,19.60
2022-08-22T04:48:09.447Z,19.70
2022-08-22T04:51:14.791Z,19.70
2022-08-22T04:54:01.280Z,19.70
2022-08-22T04:56:55.203Z,19.70
2022-08-22T04:59:25.489Z,19.80
2022-08-22T05:02:06.567Z,19.70
2022-08-22T05:05:01.802Z,19.80
2022-08-22T05:07:37.444Z,19.80
2022-08-22T05:10:11.868Z,19.90
2022-08-22T05:12:53.203Z,19.90
2022-08-22T05:15:27.015Z,19.90
2022-08-22T05:17:59.043Z,19.90
2022-08-22T05:20:29.225Z,19.80
2022-08-22T05:23:02.408Z,19.80
2022-08-22T05:25:38.365Z,19.80
2022-08-22T05:28:24.814Z,19.70
2022-08-22T05:30:53.864Z,19.40
2022-08-22T05:34:01.114Z,19.80
2022-08-22T05:36:33.669Z,19.80
2022-08-22T05:39:06.938Z,19.80
2022-08-22T05:41:37.927Z,20.00
2022-08-22T05:44:15.757Z,20.00
2022-08-22T05:46:47.176Z,19.90
2022-08-22T05:49:28.105Z,19.90
2022-08-22T05:52:21.043Z,19.90
2022-08-22T05:55:03.625Z,19.90
2022-08-22T05:57:37.330Z,19.90
2022-08-22T06:00:17.428Z,20.00
2022-08-22T06:02:59.439Z,20.10
2022-08-22T06:05:31.248Z,20.10
2022-08-22T06:08:06.775Z,20.20
2022-08-22T06:10:43.071Z,20.20
2022-08-22T06:13:24.345Z,20.30
2022-08-22T06:15:57.787Z,20.10
2022-08-22T06:18:27.361Z,20.10
2022-08-22T06:21:07.972Z,20.10
2022-08-22T06:23:46.676Z,20.10
2022-08-22T06:26:20.200Z,20.20
2022-08-22T06:28:55.125Z,20.20
2022-08-22T06:31:41.954Z,20.20
2022-08-22T06:34:14.776Z,20.20
2022-08-22T06:36:46.962Z,20.30
2022-08-22T06:39:38.497Z,20.40
2022-08-22T06:42:16.965Z,20.50
2022-08-22T06:44:50.245Z,20.70
2022-08-22T06:47:30.635Z,20.80
2022-08-22T06:50:05.057Z,20.80
2022-08-22T06:52:37.573Z,20.90
2022-08-22T06:55:08.299Z,21.00
2022-08-22T06:57:43.080Z,20.90
2022-08-22T07:00:17.267Z,20.80
2022-08-22T07:02:49.112Z,20.80
2022-08-22T07:05:21.550Z,20.70
2022-08-22T07:07:50.519Z,20.60
2022-08-22T07:10:18.627Z,20.50
2022-08-22T07:12:51.038Z,20.40
2022-08-22T07:15:40.541Z,20.40
2022-08-22T07:18:16.567Z,20.30
2022-08-22T07:20:49.844Z,20.40
2022-08-22T07:23:42.141Z,20.40
2022-08-22T07:26:24.587Z,20.40
2022-08-22T07:28:58.653Z,20.40
2022-08-22T07:31:35.135Z,20.50
2022-08-22T07:34:38.220Z,20.40
2022-08-22T07:37:11.290Z,20.50
2022-08-22T07:39:53.810Z,20.40
2022-08-22T07:42:44.201Z,20.50
2022-08-22T07:45:21.109Z,20.40
2022-08-22T07:47:49.835Z,20.40
2022-08-22T07:50:23.201Z,20.30
2022-08-22T07:52:52.919Z,20.40
2022-08-22T07:55:26.531Z,20.40
2022-08-22T07:57:58.277Z,20.40
2022-08-22T08:00:29.768Z,20.50
2022-08-22T08:03:04.731Z,20.60
2022-08-22T08:05:36.216Z,20.80
2022-08-22T08:08:31.626Z,21.00
2022-08-22T08:11:01.167Z,21.10
2022-08-22T08:13:36.879Z,21.20
2022-08-22T08:16:07.740Z,21.30
2022-08-22T08:18:36.897Z,21.40
2022-08-22T08:21:08.520Z,21.40
2022-08-22T08:23:45.300Z,21.40
2022-08-22T08:26:24.586Z,21.30
2022-08-22T08:28:55.685Z,21.40
2022-08-22T08:31:32.731Z,21.40
2022-08-22T08:34:08.835Z,21.60
2022-08-22T08:36:40.538Z,21.70
2022-08-22T08:39:17.313Z,21.70
2022-08-22T08:41:50.385Z,21.80
2022-08-22T08:44:37.433Z,21.90
2022-08-22T08:47:28.380Z,22.00
2022-08-22T08:50:24.473Z,22.20
2022-08-22T08:53:18.455Z,22.10
2022-08-22T08:55:51.320Z,22.10
2022-08-22T08:58:56.882Z,21.80
2022-08-22T09:01:31.202Z,21.80
2022-08-22T09:04:16.785Z,21.70
2022-08-22T09:07:01.020Z,21.80
2022-08-22T09:09:52.318Z,21.80
2022-08-22T09:12:54.311Z,21.80
2022-08-22T09:15:59.673Z,21.80
2022-08-22T09:19:16.259Z,21.70
2022-08-22T09:22:14.996Z,22.00
2022-08-22T09:24:48.793Z,22.10
2022-08-22T09:27:33.846Z,22.00
2022-08-22T09:30:05.609Z,22.10
2022-08-22T09:32:44.684Z,22.10
2022-08-22T09:35:39.060Z,22.10
2022-08-22T09:38:15.748Z,22.10
2022-08-22T09:41:23.250Z,22.20
2022-08-22T09:44:12.697Z,22.30
2022-08-22T09:47:07.030Z,22.30
2022-08-22T09:49:53.441Z,22.30
2022-08-22T09:52:44.673Z,22.20
2022-08-22T09:55:42.375Z,22.10
2022-08-22T09:58:19.498Z,22.10
2022-08-22T10:01:11.071Z,22.10
2022-08-22T10:04:06.023Z,21.90
2022-08-22T10:06:51.027Z,21.90
2022-08-22T10:09:32.019Z,21.90
2022-08-22T10:12:31.530Z,21.80
2022-08-22T10:15:36.025Z,21.80
2022-08-22T10:18:14.835Z,21.80
2022-08-22T10:21:00.677Z,21.80
2022-08-22T10:23:53.873Z,21.80
2022-08-22T10:26:31.206Z,21.90
2022-08-22T10:29:11.085Z,21.80
2022-08-22T10:31:59.127Z,21.80
2022-08-22T10:34:49.716Z,21.80
2022-08-22T10:37:23.790Z,21.70
2022-08-22T10:40:14.597Z,21.70
2022-08-22T10:42:53.575Z,21.70
2022-08-22T10:45:47.012Z,21.70
2022-08-22T10:48:32.666Z,21.70
2022-08-22T10:51:10.231Z,21.70
2022-08-22T10:53:42.991Z,21.60
2022-08-22T10:56:30.737Z,21.60
2022-08-22T10:59:19.623Z,21.60
2022-08-22T11:02:29.724Z,21.50
2022-08-22T11:05:00.099Z,21.50
2022-08-22T11:07:50.000Z,21.50
2022-08-22T11:10:58.708Z,21.60
2022-08-22T11:13:42.340Z,21.70
2022-08-22T11:16:26.267Z,21.80
2022-08-22T11:19:19.621Z,22.00
2022-08-22T11:22:10.524Z,22.20
2022-08-22T11:25:05.290Z,22.50
2022-08-22T11:27:41.492Z,22.70
2022-08-22T11:30:18.261Z,22.90
2022-08-22T11:33:13.734Z,22.90
2022-08-22T11:35:44.373Z,23.10
2022-08-22T11:38:22.007Z,23.30
2022-08-22T11:41:12.838Z,23.50
2022-08-22T11:44:08.032Z,23.70
2022-08-22T11:46:50.349Z,23.70
2022-08-22T11:49:26.827Z,23.50
2022-08-22T11:52:03.479Z,23.30
2022-08-22T11:54:51.801Z,23.60
2022-08-22T11:57:46.055Z,23.50
2022-08-22T12:00:28.324Z,23.70
2022-08-22T12:03:23.215Z,23.80
2022-08-22T12:05:55.818Z,23.90
2022-08-22T12:08:37.779Z,23.90
2022-08-22T12:11:34.897Z,24.10
2022-08-22T12:14:27.843Z,24.20
2022-08-22T12:17:55.350Z,24.30
2022-08-22T12:20:48.438Z,24.30
2022-08-22T12:23:58.307Z,24.60
2022-08-22T12:26:45.391Z,24.80
2022-08-22T12:29:33.850Z,25.00
2022-08-22T12:32:10.654Z,24.70
2022-08-22T12:35:15.609Z,25.20
2022-08-22T12:37:52.823Z,25.20
2022-08-22T12:40:36.472Z,25.10
2022-08-22T12:43:16.112Z,24.70
2022-08-22T12:46:14.509Z,24.70
2022-08-22T12:49:00.433Z,24.50
2022-08-22T12:52:21.602Z,24.60
2022-08-22T12:54:54.128Z,24.20
2022-08-22T12:57:45.421Z,24.10
2022-08-22T13:00:35.330Z,24.10
2022-08-22T13:03:11.471Z,23.90
2022-08-22T13:05:44.062Z,23.80
2022-08-22T13:08:25.300Z,23.80
2022-08-22T13:11:10.006Z,23.90
2022-08-22T13:13:59.382Z,23.90
2022-08-22T13:16:37.806Z,23.80
2022-08-22T13:19:14.422Z,23.70
2022-08-22T13:21:50.327Z,23.80
2022-08-22T13:24:38.752Z,23.70
2022-08-22T13:27:22.354Z,23.80
2022-08-22T13:29:57.168Z,23.90
2022-08-22T13:32:52.761Z,23.80
2022-08-22T13:35:52.299Z,24.00
2022-08-22T13:38:26.517Z,24.00
2022-08-22T13:40:57.192Z,23.90
2022-08-22T13:43:30.433Z,23.90
2022-08-22T13:46:02.528Z,24.00
2022-08-22T13:48:51.483Z,24.30
2022-08-22T13:52:14.467Z,24.60
2022-08-22T13:55:27.640Z,24.90
2022-08-22T13:58:12.185Z,24.90
2022-08-22T14:01:08.382Z,24.70
2022-08-22T14:03:48.732Z,24.60
2022-08-22T14:06:37.912Z,24.30
2022-08-22T14:09:33.042Z,24.20
2022-08-22T14:12:23.585Z,24.00
2022-08-22T14:14:57.834Z,23.80
2022-08-22T14:17:38.514Z,23.90
2022-08-22T14:20:32.594Z,24.00
2022-08-22T14:23:08.968Z,24.00
2022-08-22T14:25:39.717Z,24.00
2022-08-22T14:28:27.424Z,24.00
2022-08-22T14:31:13.284Z,23.90
2022-08-22T14:33:59.955Z,23.80
2022-08-22T14:36:38.886Z,23.50
2022-08-22T14:39:29.717Z,23.30
2022-08-22T14:42:11.153Z,23.30
2022-08-22T14:45:00.816Z,23.20
2022-08-22T14:47:55.105Z,23.30
2022-08-22T14:50:42.258Z,23.30
2022-08-22T14:53:12.836Z,23.20
2022-08-22T14:55:42.115Z,23.00
2022-08-22T14:58:26.255Z,22.90
2022-08-22T15:00:57.953Z,22.90
2022-08-22T15:03:32.590Z,23.10
2022-08-22T15:06:08.541Z,23.00
2022-08-22T15:08:47.727Z,23.10
2022-08-22T15:11:22.328Z,23.20
2022-08-22T15:14:12.562Z,23.00
2022-08-22T15:17:05.475Z,23.10
2022-08-22T15:19:33.151Z,23.10
2022-08-22T15:22:13.740Z,23.20
2022-08-22T15:24:46.386Z,23.20
2022-08-22T15:27:19.039Z,23.30
2022-08-22T15:30:00.759Z,23.10
2022-08-22T15:32:35.274Z,23.00
2022-08-22T15:35:14.474Z,23.00
2022-08-22T15:37:59.594Z,22.90
2022-08-22T15:40:40.887Z,22.90
2022-08-22T15:43:28.896Z,22.70
2022-08-22T15:46:20.915Z,22.80
2022-08-22T15:49:23.678Z,22.80
2022-08-22T15:52:03.085Z,22.60
2022-08-22T15:54:57.049Z,22.50
2022-08-22T15:57:41.579Z,22.50
2022-08-22T16:00:43.418Z,22.50
2022-08-22T16:03:33.257Z,22.40
2022-08-22T16:06:08.060Z,22.30
2022-08-22T16:08:47.385Z,22.40
2022-08-22T16:11:20.705Z,22.30
2022-08-22T16:14:08.021Z,22.20
2022-08-22T16:16:45.208Z,22.20
2022-08-22T16:19:22.418Z,22.10
2022-08-22T16:21:53.658Z,22.00
2022-08-22T16:24:24.054Z,22.00
2022-08-22T16:26:52.814Z,22.00
2022-08-22T16:29:41.279Z,21.90
2022-08-22T16:32:11.879Z,21.90
2022-08-22T16:34:42.476Z,21.90
2022-08-22T16:37:14.532Z,21.80
2022-08-22T16:40:04.638Z,21.80
2022-08-22T16:42:39.295Z,21.70
2022-08-22T16:45:18.414Z,21.70
2022-08-22T16:47:56.635Z,21.70
2022-08-22T16:50:33.787Z,21.70
2022-08-22T16:53:35.399Z,21.60
2022-08-22T16:56:13.814Z,21.50
2022-08-22T16:58:57.887Z,21.50
2022-08-22T17:02:04.876Z,21.50
2022-08-22T17:04:55.524Z,21.50
2022-08-22T17:07:31.615Z,21.40
2022-08-22T17:10:17.617Z,21.40
2022-08-22T17:13:09.852Z,21.30
2022-08-22T17:15:49.046Z,21.30
2022-08-22T17:18:19.402Z,21.20
2022-08-22T17:21:05.313Z,21.20
2022-08-22T17:23:52.203Z,21.10
2022-08-22T17:26:34.706Z,21.10
2022-08-22T17:29:29.607Z,21.10
2022-08-22T17:32:06.894Z,21.00
2022-08-22T17:35:02.202Z,21.00
2022-08-22T17:37:45.889Z,20.90
2022-08-22T17:40:21.654Z,20.90
2022-08-22T17:43:07.729Z,20.90
2022-08-22T17:45:49.459Z,20.90
2022-08-22T17:48:28.871Z,20.90
2022-08-22T17:51:19.211Z,20.90
2022-08-22T17:53:55.025Z,20.80
2022-08-22T17:56:35.108Z,20.80
2022-08-22T17:59:30.293Z,20.80
2022-08-22T18:02:40.840Z,20.80
2022-08-22T18:05:19.391Z,20.80
2022-08-22T18:08:01.150Z,20.60
2022-08-22T18:10:56.607Z,20.70
2022-08-22T18:13:43.288Z,20.70
2022-08-22T18:16:16.908Z,20.70
2022-08-22T18:18:53.524Z,20.70
2022-08-22T18:21:58.958Z,20.70
2022-08-22T18:24:54.045Z,20.70
2022-08-22T18:27:53.952Z,20.60
2022-08-22T18:30:36.692Z,20.70
2022-08-22T18:33:15.808Z,20.60
2022-08-22T18:35:53.832Z,20.60
2022-08-22T18:38:41.046Z,20.60
2022-08-22T18:41:32.576Z,20.60
2022-08-22T18:44:01.278Z,20.60
2022-08-22T18:46:34.341Z,20.60
2022-08-22T18:49:24.466Z,20.60
2022-08-22T18:52:09.961Z,20.60
2022-08-22T18:54:59.509Z,20.60
2022-08-22T18:57:42.868Z,20.60
2022-08-22T19:00:17.025Z,20.60
2022-08-22T19:03:08.588Z,20.50
2022-08-22T19:06:06.069Z,20.50
2022-08-22T19:08:42.636Z,20.50
2022-08-22T19:11:37.266Z,20.50
2022-08-22T19:14:46.400Z,20.50
2022-08-22T19:17:45.049Z,20.50
2022-08-22T19:20:47.396Z,20.60
2022-08-22T19:23:33.141Z,20.50
2022-08-22T19:26:40.372Z,20.60
2022-08-22T19:29:30.513Z,20.60
2022-08-22T19:32:02.218Z,20.60
2022-08-22T19:34:36.610Z,20.60
2022-08-22T19:37:31.921Z,20.60
2022-08-22T19:40:10.278Z,20.60
2022-08-22T19:42:43.443Z,20.60
2022-08-22T19:45:26.685Z,20.70
2022-08-22T19:48:13.093Z,20.60
2022-08-22T19:50:43.133Z,20.60
2022-08-22T19:53:42.595Z,20.70
2022-08-22T19:56:45.550Z,20.60
2022-08-22T19:59:21.723Z,20.60
2022-08-22T20:01:57.092Z,20.60
2022-08-22T20:04:41.292Z,20.60
2022-08-22T20:07:55.223Z,20.60
2022-08-22T20:11:02.355Z,20.60
2022-08-22T20:13:35.730Z,20.60
2022-08-22T20:16:21.478Z,20.60
2022-08-22T20:18:58.762Z,20.60
2022-08-22T20:21:45.573Z,20.70
2022-08-22T20:24:44.859Z,20.60
2022-08-22T20:27:35.149Z,20.70
2022-08-22T20:30:26.930Z,20.60
2022-08-22T20:32:59.981Z,20.60
2022-08-22T20:35:44.402Z,20.70
2022-08-22T20:38:16.734Z,20.70
2022-08-22T20:40:56.180Z,20.60
2022-08-22T20:43:46.291Z,20.60
2022-08-22T20:46:36.530Z,20.60
2022-08-22T20:49:05.357Z,20.60
2022-08-22T20:51:34.291Z,20.60
2022-08-22T20:54:16.678Z,20.60
2022-08-22T20:56:57.220Z,20.60
2022-08-22T20:59:37.611Z,20.70
2022-08-22T21:02:23.411Z,20.60
2022-08-22T21:05:00.298Z,20.70
2022-08-22T21:07:42.471Z,20.70
2022-08-22T21:10:37.030Z,20.70
2022-08-22T21:13:22.415Z,20.70
2022-08-22T21:15:53.270Z,20.70
2022-08-22T21:18:27.717Z,20.80
2022-08-22T21:21:14.754Z,20.80
2022-08-22T21:23:50.599Z,20.80
2022-08-22T21:26:30.554Z,20.90
2022-08-22T21:29:13.226Z,20.90
2022-08-22T21:31:47.968Z,20.90
2022-08-22T21:34:22.744Z,20.90
2022-08-22T21:36:53.873Z,20.80
2022-08-22T21:39:30.954Z,20.80
2022-08-22T21:42:01.082Z,20.70
2022-08-22T21:44:31.390Z,20.70
2022-08-22T21:47:30.237Z,20.70
2022-08-22T21:50:13.454Z,20.70
2022-08-22T21:53:00.107Z,20.70
2022-08-22T21:55:47.168Z,20.60
2022-08-22T21:58:35.877Z,20.60
2022-08-22T22:01:25.009Z,20.70
2022-08-22T22:03:55.045Z,20.70
2022-08-22T22:06:22.440Z,20.70
2022-08-22T22:08:49.872Z,20.70
2022-08-22T22:11:18.476Z,20.60
2022-08-22T22:13:46.057Z,20.60
2022-08-22T22:16:15.767Z,20.60
2022-08-22T22:18:43.255Z,20.50
2022-08-22T22:21:10.975Z,20.50
2022-08-22T22:23:38.417Z,20.40
2022-08-22T22:26:06.283Z,20.40
2022-08-22T22:28:40.539Z,20.40
2022-08-22T22:31:08.850Z,20.40
2022-08-22T22:33:39.433Z,20.50
2022-08-22T22:36:20.314Z,20.50
2022-08-22T22:38:49.281Z,20.40
2022-08-22T22:41:20.457Z,20.40
2022-08-22T22:43:47.785Z,20.40
2022-08-22T22:46:15.261Z,20.40
2022-08-22T22:48:42.698Z,20.40
2022-08-22T22:51:12.497Z,20.40
2022-08-22T22:53:43.015Z,20.40
2022-08-22T22:56:15.988Z,20.30
2022-08-22T22:58:44.068Z,20.40
2022-08-22T23:01:18.101Z,20.40
2022-08-22T23:03:46.447Z,20.40
2022-08-22T23:06:17.851Z,20.40
2022-08-22T23:08:46.028Z,20.30
2022-08-22T23:11:17.075Z,20.40
2022-08-22T23:13:45.155Z,20.30
2022-08-22T23:16:16.441Z,20.30
2022-08-22T23:18:44.628Z,20.30
2022-08-22T23:21:33.826Z,20.30
2022-08-22T23:24:01.800Z,20.20
2022-08-22T23:26:29.890Z,20.30
2022-08-22T23:28:57.668Z,20.30
2022-08-22T23:31:35.046Z,20.20
2022-08-22T23:34:14.233Z,20.20
2022-08-22T23:36:45.579Z,20.20
2022-08-22T23:39:14.825Z,20.20
2022-08-22T23:41:43.253Z,20.20
2022-08-22T23:44:13.725Z,20.20
2022-08-22T23:46:42.491Z,20.20
2022-08-22T23:49:10.458Z,20.20
2022-08-22T23:51:38.731Z,20.20
2022-08-22T23:54:07.332Z,20.10
2022-08-22T23:56:40.812Z,20.10
2022-08-22T23:59:09.912Z,20.10
